Cairo, Egypt
Current Conditions -  °F | °C
As of 6:00 PM on Thursday 27 Nov 2014 (Local Time) from HECA Reporting Station
Scattered Clouds Scattered Clouds  
Wind Chill: 64°   Ceiling: Unl
Heat Index: 64°   Visibility: 6mi
Dew Point: 50°   Wind: 8mph
Humidity: 59%   Direction: 300°WNW
Pressure: 30.12"   Gusts: NA
Location:  30.06°N, 31.25°E
Report Text: HECA 271600Z 30007KT 9999 SCT025 18/10 Q1020 NOSIG
Loading
Personal Weather Stations






























Interactive Weather Map New forecast layout! Learn more

10-Day Weather Forecast

Advertisements
Track Severe Weather on mobile